createdAt,value
2018-12-17T00:00:54.987Z,71.33
2018-12-17T00:01:54.936Z,70.48
2018-12-17T00:02:54.918Z,69.82
2018-12-17T00:03:54.808Z,69.82
2018-12-17T00:04:54.751Z,70.01
2018-12-17T00:05:54.705Z,70.20
2018-12-17T00:06:54.631Z,70.10
2018-12-17T00:07:54.608Z,70.95
2018-12-17T00:08:54.511Z,71.33
2018-12-17T00:09:54.454Z,71.04
2018-12-17T00:10:54.394Z,70.76
2018-12-17T00:11:54.336Z,71.04
2018-12-17T00:12:54.306Z,70.76
2018-12-17T00:13:54.214Z,71.14
2018-12-17T00:14:54.166Z,71.23
2018-12-17T00:15:54.167Z,70.86
2018-12-17T00:16:54.037Z,69.82
2018-12-17T00:17:53.976Z,69.82
2018-12-17T00:18:53.918Z,69.25
2018-12-17T00:19:53.860Z,69.06
2018-12-17T00:20:53.831Z,68.87
2018-12-17T00:21:53.739Z,68.87
2018-12-17T00:22:53.681Z,68.87
2018-12-17T00:23:53.621Z,69.34
2018-12-17T00:24:53.601Z,69.15
2018-12-17T00:25:53.504Z,69.82
2018-12-17T00:26:53.442Z,70.48
2018-12-17T00:27:53.389Z,70.20
2018-12-17T00:28:53.328Z,70.95
2018-12-17T00:29:53.295Z,71.52
2018-12-17T00:30:53.205Z,71.61
2018-12-17T00:31:53.146Z,72.09
2018-12-17T00:32:53.087Z,71.80
2018-12-17T00:33:53.034Z,72.66
2018-12-17T00:34:53.017Z,72.56
2018-12-17T00:35:52.908Z,72.37
2018-12-17T00:36:52.850Z,72.18
2018-12-17T00:37:52.797Z,71.99
2018-12-17T00:38:52.734Z,72.56
2018-12-17T00:39:52.705Z,72.47
2018-12-17T00:40:52.615Z,72.66
2018-12-17T00:41:52.595Z,72.75
2018-12-17T00:42:52.495Z,72.56
2018-12-17T00:43:52.438Z,72.28
2018-12-17T00:44:52.377Z,73.03
2018-12-17T00:45:52.324Z,72.85
2018-12-17T00:46:52.308Z,72.37
2018-12-17T00:47:52.205Z,71.71
2018-12-17T00:48:52.142Z,71.90
2018-12-17T00:49:52.083Z,71.61
2018-12-17T00:50:52.022Z,71.90
2018-12-17T00:51:51.997Z,71.33
2018-12-17T00:52:51.902Z,70.10
2018-12-17T00:53:51.875Z,70.29
2018-12-17T00:54:51.787Z,70.57
2018-12-17T00:55:51.726Z,70.20
2018-12-17T00:56:51.733Z,70.48
2018-12-17T00:57:51.608Z,70.01
2018-12-17T00:58:51.548Z,70.10
2018-12-17T00:59:51.491Z,70.67
2018-12-17T01:00:51.430Z,70.67
2018-12-17T01:01:51.423Z,70.48
2018-12-17T01:02:51.367Z,70.67
2018-12-17T01:03:51.253Z,70.48
2018-12-17T01:04:51.194Z,70.20
2018-12-17T01:05:51.133Z,70.86
2018-12-17T01:06:51.123Z,71.04
2018-12-17T01:07:51.016Z,71.80
2018-12-17T01:08:50.958Z,71.90
2018-12-17T01:09:50.898Z,72.18
2018-12-17T01:10:50.840Z,71.99
2018-12-17T01:11:50.811Z,71.71
2018-12-17T01:12:50.721Z,72.28
2018-12-17T01:13:50.661Z,72.47
2018-12-17T01:14:50.603Z,71.61
2018-12-17T01:15:50.540Z,71.52
2018-12-17T01:16:50.515Z,70.76
2018-12-17T01:17:50.458Z,70.20
2018-12-17T01:18:50.363Z,70.20
2018-12-17T01:19:50.304Z,70.39
2018-12-17T01:20:50.253Z,70.29
2018-12-17T01:21:50.218Z,70.48
2018-12-17T01:22:50.128Z,71.04
2018-12-17T01:23:50.091Z,70.20
2018-12-17T01:24:50.045Z,70.48
2018-12-17T01:25:49.953Z,71.04
2018-12-17T01:26:49.891Z,70.48
2018-12-17T01:27:49.834Z,70.57
2018-12-17T01:28:49.804Z,70.95
2018-12-17T01:29:49.714Z,70.86
2018-12-17T01:30:49.657Z,70.76
2018-12-17T01:31:49.594Z,71.14
2018-12-17T01:32:49.569Z,71.04
2018-12-17T01:33:49.480Z,71.04
2018-12-17T01:34:49.422Z,70.48
2018-12-17T01:35:49.357Z,71.23
2018-12-17T01:36:49.335Z,70.29
2018-12-17T01:37:49.239Z,69.63
2018-12-17T01:38:49.181Z,69.91
2018-12-17T01:39:49.125Z,69.63
2018-12-17T01:40:49.102Z,69.91
2018-12-17T01:41:49.004Z,69.53
2018-12-17T01:42:48.944Z,69.25
2018-12-17T01:43:48.884Z,69.63
2018-12-17T01:44:48.827Z,69.63
2018-12-17T01:45:48.797Z,69.25
2018-12-17T01:46:48.707Z,69.15
2018-12-17T01:47:48.679Z,69.06
2018-12-17T01:48:48.588Z,69.25
2018-12-17T01:49:48.532Z,69.06
2018-12-17T01:50:48.473Z,69.44
2018-12-17T01:51:48.433Z,69.06
2018-12-17T01:52:48.385Z,68.87
2018-12-17T01:53:48.296Z,69.06
2018-12-17T01:54:48.235Z,69.34
2018-12-17T01:55:48.173Z,69.25
2018-12-17T01:56:48.117Z,69.63
2018-12-17T01:57:48.093Z,69.34
2018-12-17T01:58:48.027Z,69.63
2018-12-17T01:59:47.936Z,69.34
2018-12-17T02:00:47.911Z,70.01
2018-12-17T02:01:47.838Z,70.20
2018-12-17T02:02:47.761Z,69.15
2018-12-17T02:03:47.701Z,69.25
2018-12-17T02:04:47.672Z,69.63
2018-12-17T02:05:47.581Z,69.63
2018-12-17T02:06:47.526Z,68.96
2018-12-17T02:07:47.464Z,68.77
2018-12-17T02:08:47.406Z,68.96
2018-12-17T02:09:47.385Z,68.59
2018-12-17T02:10:47.289Z,69.53
2018-12-17T02:11:47.234Z,69.53
2018-12-17T02:12:47.168Z,69.44
2018-12-17T02:13:47.109Z,69.25
2018-12-17T02:14:47.082Z,69.06
2018-12-17T02:15:47.029Z,69.25
2018-12-17T02:16:46.931Z,69.63
2018-12-17T02:17:46.874Z,70.20
2018-12-17T02:18:46.817Z,70.10
2018-12-17T02:19:46.755Z,70.10
2018-12-17T02:20:46.728Z,69.25
2018-12-17T02:21:46.636Z,68.77
2018-12-17T02:22:46.576Z,68.30
2018-12-17T02:23:46.517Z,68.30
2018-12-17T02:24:46.456Z,67.93
2018-12-17T02:25:46.442Z,67.93
2018-12-17T02:26:46.340Z,67.45
2018-12-17T02:27:46.281Z,67.55
2018-12-17T02:28:46.222Z,67.45
2018-12-17T02:29:46.162Z,67.26
2018-12-17T02:30:46.140Z,67.17
2018-12-17T02:31:46.044Z,67.64
2018-12-17T02:32:45.983Z,67.45
2018-12-17T02:33:45.924Z,67.26
2018-12-17T02:34:45.865Z,67.55
2018-12-17T02:35:45.849Z,67.64
2018-12-17T02:36:45.747Z,67.45
2018-12-17T02:37:45.685Z,67.93
2018-12-17T02:38:45.630Z,67.93
2018-12-17T02:39:45.566Z,67.83
2018-12-17T02:40:45.539Z,68.02
2018-12-17T02:41:45.485Z,67.83
2018-12-17T02:42:45.389Z,68.30
2018-12-17T02:43:45.330Z,68.36
2018-12-17T02:44:45.270Z,68.46
2018-12-17T02:45:45.217Z,68.40
2018-12-17T02:46:45.184Z,68.30
2018-12-17T02:47:45.093Z,68.08
2018-12-17T02:48:45.030Z,68.21
2018-12-17T02:49:44.973Z,68.27
2018-12-17T02:50:44.925Z,68.17
2018-12-17T02:51:44.893Z,68.27
2018-12-17T02:52:44.828Z,68.08
2018-12-17T02:53:44.738Z,68.36
2018-12-17T02:54:44.679Z,68.27
2018-12-17T02:55:44.629Z,68.46
2018-12-17T02:56:44.555Z,68.17
2018-12-17T02:57:44.527Z,68.17
2018-12-17T02:58:44.441Z,69.21
2018-12-17T02:59:44.378Z,69.02
2018-12-17T03:00:44.318Z,69.02
2018-12-17T03:01:44.261Z,68.77
2018-12-17T03:02:44.232Z,69.15
2018-12-17T03:03:44.147Z,69.59
2018-12-17T03:04:44.084Z,69.31
2018-12-17T03:05:44.023Z,69.63
2018-12-17T03:06:43.997Z,69.34
2018-12-17T03:07:43.934Z,69.25
2018-12-17T03:08:43.840Z,69.49
2018-12-17T03:09:43.781Z,69.44
2018-12-17T03:10:43.722Z,69.21
2018-12-17T03:11:43.665Z,69.49
2018-12-17T03:12:43.638Z,70.06
2018-12-17T03:13:43.545Z,69.78
2018-12-17T03:14:43.482Z,69.97
2018-12-17T03:15:43.426Z,69.78
2018-12-17T03:16:43.364Z,70.06
2018-12-17T03:17:43.336Z,69.40
2018-12-17T03:18:43.263Z,69.40
2018-12-17T03:19:43.187Z,69.49
2018-12-17T03:20:43.130Z,69.40
2018-12-17T03:21:43.117Z,69.49
2018-12-17T03:22:43.038Z,69.49
2018-12-17T03:23:42.952Z,69.21
2018-12-17T03:24:42.890Z,69.49
2018-12-17T03:25:42.831Z,69.12
2018-12-17T03:26:42.769Z,69.31
2018-12-17T03:27:42.740Z,69.49
2018-12-17T03:28:42.658Z,69.31
2018-12-17T03:29:42.588Z,69.40
2018-12-17T03:30:42.530Z,69.31
2018-12-17T03:31:42.501Z,69.40
2018-12-17T03:32:42.447Z,69.49
2018-12-17T03:33:42.352Z,69.40
2018-12-17T03:34:42.299Z,69.40
2018-12-17T03:35:42.232Z,69.49
2018-12-17T03:36:42.206Z,69.40
2018-12-17T03:37:42.145Z,69.59
2018-12-17T03:38:42.064Z,69.59
2018-12-17T03:39:41.998Z,70.06
2018-12-17T03:40:41.935Z,69.97
2018-12-17T03:41:41.905Z,70.16
2018-12-17T03:42:41.847Z,69.68
2018-12-17T03:43:41.757Z,69.87
2018-12-17T03:44:41.706Z,70.16
2018-12-17T03:45:41.638Z,70.06
2018-12-17T03:46:41.579Z,70.06
2018-12-17T03:47:41.553Z,70.16
2018-12-17T03:48:41.458Z,69.97
2018-12-17T03:49:41.399Z,69.68
2018-12-17T03:50:41.338Z,70.44
2018-12-17T03:51:41.312Z,70.06
2018-12-17T03:52:41.216Z,70.06
2018-12-17T03:53:41.158Z,69.87
2018-12-17T03:54:41.096Z,69.87
2018-12-17T03:55:41.045Z,70.44
2018-12-17T03:56:41.013Z,69.97
2018-12-17T03:57:40.926Z,69.68
2018-12-17T03:58:40.890Z,69.87
2018-12-17T03:59:40.799Z,69.68
2018-12-17T04:00:40.741Z,69.68
2018-12-17T04:01:40.683Z,69.68
2018-12-17T04:02:40.643Z,70.35
2018-12-17T04:03:40.595Z,70.16
2018-12-17T04:04:40.556Z,69.87
2018-12-17T04:05:40.445Z,70.06
2018-12-17T04:06:40.391Z,69.97
2018-12-17T04:07:40.321Z,70.16
2018-12-17T04:08:40.309Z,70.06
2018-12-17T04:09:40.206Z,70.44
2018-12-17T04:10:40.144Z,69.97
2018-12-17T04:11:40.084Z,70.25
2018-12-17T04:12:40.051Z,69.87
2018-12-17T04:13:39.996Z,69.68
2018-12-17T04:14:39.907Z,70.06
2018-12-17T04:15:39.846Z,69.87
2018-12-17T04:16:39.823Z,70.06
2018-12-17T04:17:39.727Z,70.16
2018-12-17T04:18:39.666Z,70.35
2018-12-17T04:19:39.608Z,70.16
2018-12-17T04:20:39.550Z,70.16
2018-12-17T04:21:39.535Z,69.78
2018-12-17T04:22:39.427Z,69.68
2018-12-17T04:23:39.368Z,69.97
2018-12-17T04:24:39.316Z,70.35
2018-12-17T04:25:39.254Z,70.63
2018-12-17T04:26:39.220Z,70.35
2018-12-17T04:27:39.161Z,70.35
2018-12-17T04:28:39.068Z,70.63
2018-12-17T04:29:39.010Z,70.25
2018-12-17T04:30:38.952Z,70.06
2018-12-17T04:31:38.891Z,69.97
2018-12-17T04:32:38.873Z,69.78
2018-12-17T04:33:38.770Z,70.06
2018-12-17T04:34:38.710Z,69.68
2018-12-17T04:35:38.652Z,70.63
2018-12-17T04:36:38.595Z,70.35
2018-12-17T04:37:38.573Z,70.54
2018-12-17T04:38:38.474Z,70.35
2018-12-17T04:39:38.416Z,70.35
2018-12-17T04:40:38.359Z,70.35
2018-12-17T04:41:38.293Z,70.57
2018-12-17T04:42:38.274Z,70.20
2018-12-17T04:43:38.186Z,70.20
2018-12-17T04:44:38.116Z,70.39
2018-12-17T04:45:38.054Z,70.57
2018-12-17T04:46:37.995Z,70.10
2018-12-17T04:47:37.971Z,69.82
2018-12-17T04:48:37.910Z,69.91
2018-12-17T04:49:37.818Z,70.20
2018-12-17T04:50:37.756Z,69.91
2018-12-17T04:51:37.723Z,70.01
2018-12-17T04:52:37.672Z,70.35
2018-12-17T04:53:37.622Z,70.54
2018-12-17T04:54:37.550Z,69.91
2018-12-17T04:55:37.464Z,70.06
2018-12-17T04:56:37.400Z,70.01
2018-12-17T04:57:37.381Z,70.01
2018-12-17T04:58:37.282Z,70.06
2018-12-17T04:59:37.222Z,70.20
2018-12-17T05:00:37.161Z,70.54
2018-12-17T05:01:37.104Z,70.44
2018-12-17T05:02:37.077Z,70.29
2018-12-17T05:03:36.998Z,70.48
2018-12-17T05:04:36.925Z,70.63
2018-12-17T05:05:36.863Z,70.44
2018-12-17T05:06:36.840Z,70.06
2018-12-17T05:07:36.745Z,70.39
2018-12-17T05:08:36.682Z,69.82
2018-12-17T05:09:36.623Z,70.25
2018-12-17T05:10:36.603Z,70.10
2018-12-17T05:11:36.507Z,69.82
2018-12-17T05:12:36.446Z,70.20
2018-12-17T05:13:36.422Z,70.29
2018-12-17T05:14:36.329Z,70.01
2018-12-17T05:15:36.300Z,69.63
2018-12-17T05:16:36.209Z,70.57
2018-12-17T05:17:36.149Z,70.48
2018-12-17T05:18:36.091Z,70.39
2018-12-17T05:19:36.031Z,70.54
2018-12-17T05:20:36.003Z,70.39
2018-12-17T05:21:35.914Z,71.04
2018-12-17T05:22:35.853Z,71.04
2018-12-17T05:23:35.792Z,70.76
2018-12-17T05:24:35.732Z,70.95
2018-12-17T05:25:35.714Z,70.82
2018-12-17T05:26:35.613Z,70.76
2018-12-17T05:27:35.552Z,71.14
2018-12-17T05:28:35.494Z,71.20
2018-12-17T05:29:35.433Z,71.20
2018-12-17T05:30:35.409Z,71.52
2018-12-17T05:31:35.318Z,71.52
2018-12-17T05:32:35.260Z,71.58
2018-12-17T05:33:35.196Z,71.58
2018-12-17T05:34:35.186Z,71.67
2018-12-17T05:35:35.085Z,71.42
2018-12-17T05:36:35.018Z,71.23
2018-12-17T05:37:34.968Z,71.14
2018-12-17T05:38:34.901Z,71.14
2018-12-17T05:39:34.871Z,71.04
2018-12-17T05:40:34.780Z,71.04
2018-12-17T05:41:34.723Z,71.33
2018-12-17T05:42:34.663Z,70.95
2018-12-17T05:43:34.602Z,70.48
2018-12-17T05:44:34.583Z,70.10
2018-12-17T05:45:34.489Z,70.29
2018-12-17T05:46:34.425Z,70.39
2018-12-17T05:47:34.402Z,70.39
2018-12-17T05:48:34.306Z,70.39
2018-12-17T05:49:34.245Z,70.29
2018-12-17T05:50:34.187Z,70.29
2018-12-17T05:51:34.133Z,70.39
2018-12-17T05:52:34.102Z,70.39
2018-12-17T05:53:34.008Z,70.57
2018-12-17T05:54:33.951Z,70.57
2018-12-17T05:55:33.922Z,70.20
2018-12-17T05:56:33.830Z,70.39
2018-12-17T05:57:33.803Z,70.20
2018-12-17T05:58:33.745Z,70.20
2018-12-17T05:59:33.653Z,70.10
2018-12-17T06:00:33.594Z,70.39
2018-12-17T06:01:33.531Z,70.20
2018-12-17T06:02:33.503Z,70.39
2018-12-17T06:03:33.410Z,70.48
2018-12-17T06:04:33.355Z,70.48
2018-12-17T06:05:33.294Z,70.39
2018-12-17T06:06:33.265Z,69.91
2018-12-17T06:07:33.209Z,70.01
2018-12-17T06:08:33.149Z,70.29
2018-12-17T06:09:33.056Z,69.82
2018-12-17T06:10:32.998Z,69.82
2018-12-17T06:11:32.937Z,69.82
2018-12-17T06:12:32.909Z,69.82
2018-12-17T06:13:32.824Z,69.91
2018-12-17T06:14:32.758Z,70.01
2018-12-17T06:15:32.701Z,69.82
2018-12-17T06:16:32.640Z,70.20
2018-12-17T06:17:32.613Z,69.72
2018-12-17T06:18:32.523Z,69.82
2018-12-17T06:19:32.463Z,69.82
2018-12-17T06:20:32.405Z,70.01
2018-12-17T06:21:32.380Z,70.39
2018-12-17T06:22:32.283Z,70.29
2018-12-17T06:23:32.223Z,70.48
2018-12-17T06:24:32.162Z,70.95
2018-12-17T06:25:32.103Z,70.39
2018-12-17T06:26:32.077Z,70.20
2018-12-17T06:27:36.764Z,71.04
2018-12-17T06:28:31.927Z,71.04
2018-12-17T06:29:35.578Z,71.04
2018-12-17T06:30:31.874Z,71.04
2018-12-17T06:31:31.744Z,70.76
2018-12-17T06:32:31.721Z,70.57
2018-12-17T06:33:31.626Z,70.29
2018-12-17T06:34:31.565Z,70.39
2018-12-17T06:35:31.510Z,70.29
2018-12-17T06:36:31.447Z,70.01
2018-12-17T06:37:31.429Z,70.01
2018-12-17T06:38:31.329Z,69.72
2018-12-17T06:39:31.276Z,69.63
2018-12-17T06:40:31.246Z,69.53
2018-12-17T06:41:31.195Z,69.53
2018-12-17T06:42:31.094Z,69.25
2018-12-17T06:43:31.033Z,69.25
2018-12-17T06:44:30.976Z,69.25
2018-12-17T06:45:30.913Z,69.25
2018-12-17T06:46:30.886Z,69.25
2018-12-17T06:47:30.795Z,69.25
2018-12-17T06:48:30.739Z,69.63
2018-12-17T06:49:30.675Z,69.63
2018-12-17T06:50:30.616Z,70.10
2018-12-17T06:51:30.591Z,70.20
2018-12-17T06:52:30.499Z,70.10
2018-12-17T06:53:30.437Z,69.53
2018-12-17T06:54:30.422Z,69.53
2018-12-17T06:55:30.318Z,69.25
2018-12-17T06:56:30.258Z,69.25
2018-12-17T06:57:30.200Z,69.63
2018-12-17T06:58:30.141Z,69.25
2018-12-17T06:59:30.127Z,69.63
2018-12-17T07:00:30.023Z,69.44
2018-12-17T07:01:29.961Z,69.63
2018-12-17T07:02:29.902Z,69.82
2018-12-17T07:03:29.843Z,70.39
2018-12-17T07:04:29.819Z,70.39
2018-12-17T07:05:29.735Z,70.20
2018-12-17T07:06:29.665Z,70.01
2018-12-17T07:07:29.638Z,70.29
2018-12-17T07:08:29.547Z,70.20
2018-12-17T07:09:29.489Z,70.10
2018-12-17T07:10:29.427Z,70.48
2018-12-17T07:11:29.367Z,70.48
2018-12-17T07:12:29.342Z,70.39
2018-12-17T07:13:29.261Z,70.20
2018-12-17T07:14:29.221Z,70.48
2018-12-17T07:15:29.130Z,70.39
2018-12-17T07:16:29.071Z,70.20
2018-12-17T07:17:29.053Z,70.20
2018-12-17T07:18:28.954Z,70.39
2018-12-17T07:19:28.896Z,70.01
2018-12-17T07:20:28.833Z,70.10
2018-12-17T07:21:28.780Z,70.39
2018-12-17T07:22:28.757Z,70.48
2018-12-17T07:23:28.654Z,69.91
2018-12-17T07:24:28.596Z,69.91
2018-12-17T07:25:28.540Z,70.01
2018-12-17T07:26:28.860Z,70.01
2018-12-17T07:27:28.451Z,70.29
2018-12-17T07:28:28.360Z,70.29
2018-12-17T07:29:28.301Z,70.20
2018-12-17T07:30:28.275Z,69.91
2018-12-17T07:31:28.188Z,70.20
2018-12-17T07:32:28.121Z,70.01
2018-12-17T07:33:28.061Z,70.20
2018-12-17T07:34:28.004Z,69.82
2018-12-17T07:35:27.975Z,70.20
2018-12-17T07:36:27.883Z,69.82
2018-12-17T07:37:27.826Z,70.10
2018-12-17T07:38:27.766Z,69.53
2018-12-17T07:39:27.739Z,69.91
2018-12-17T07:40:27.647Z,69.63
2018-12-17T07:41:27.586Z,69.91
2018-12-17T07:42:27.529Z,69.63
2018-12-17T07:43:27.469Z,69.53
2018-12-17T07:44:27.440Z,69.53
2018-12-17T07:45:27.396Z,70.29
2018-12-17T07:46:27.352Z,69.63
2018-12-17T07:47:27.232Z,69.63
2018-12-17T07:48:27.172Z,70.20
2018-12-17T07:49:27.115Z,69.91
2018-12-17T07:50:27.089Z,70.10
2018-12-17T07:51:26.994Z,70.48
2018-12-17T07:52:26.938Z,70.48
2018-12-17T07:53:26.876Z,70.48
2018-12-17T07:54:26.848Z,70.48
2018-12-17T07:55:26.757Z,70.39
2018-12-17T07:56:26.700Z,70.20
2018-12-17T07:57:26.672Z,70.39
2018-12-17T07:58:26.581Z,70.29
2018-12-17T07:59:26.552Z,70.39
2018-12-17T08:00:26.463Z,70.39
2018-12-17T08:01:26.445Z,70.95
2018-12-17T08:02:26.346Z,70.20
2018-12-17T08:03:26.286Z,70.29
2018-12-17T08:04:26.224Z,70.20
2018-12-17T08:05:26.165Z,70.57
2018-12-17T08:06:26.139Z,70.48
2018-12-17T08:07:26.048Z,70.29
2018-12-17T08:08:25.987Z,70.48
2018-12-17T08:09:25.929Z,70.48
2018-12-17T08:10:25.870Z,70.01
2018-12-17T08:11:25.849Z,69.91
2018-12-17T08:12:25.768Z,69.82
2018-12-17T08:13:25.696Z,69.66
2018-12-17T08:14:25.658Z,69.95
2018-12-17T08:15:25.574Z,69.91
2018-12-17T08:16:25.562Z,69.91
2018-12-17T08:17:25.457Z,69.91
2018-12-17T08:18:25.397Z,70.10
2018-12-17T08:19:25.337Z,69.82
2018-12-17T08:20:25.281Z,70.29
2018-12-17T08:21:25.251Z,70.32
2018-12-17T08:22:25.187Z,70.48
2018-12-17T08:23:25.100Z,70.48
2018-12-17T08:24:25.045Z,70.29
2018-12-17T08:25:24.981Z,69.76
2018-12-17T08:26:24.962Z,69.66
2018-12-17T08:27:24.904Z,69.82
2018-12-17T08:28:24.807Z,69.47
2018-12-17T08:29:24.749Z,69.57
2018-12-17T08:30:24.691Z,69.38
2018-12-17T08:31:24.628Z,69.28
2018-12-17T08:32:24.597Z,69.66
2018-12-17T08:33:24.509Z,69.09
2018-12-17T08:34:24.490Z,68.96
2018-12-17T08:35:24.391Z,68.71
2018-12-17T08:36:24.332Z,68.81
2018-12-17T08:37:24.273Z,68.05
2018-12-17T08:38:24.215Z,68.24
2018-12-17T08:39:24.195Z,67.96
2018-12-17T08:40:24.093Z,67.77
2018-12-17T08:41:24.033Z,67.86
2018-12-17T08:42:23.975Z,67.86
2018-12-17T08:43:23.915Z,67.68
2018-12-17T08:44:23.893Z,67.49
2018-12-17T08:45:23.800Z,67.68
2018-12-17T08:46:23.740Z,67.58
2018-12-17T08:47:23.711Z,67.39
2018-12-17T08:48:23.626Z,67.49
2018-12-17T08:49:23.562Z,67.39
2018-12-17T08:50:23.503Z,67.49
2018-12-17T08:51:23.446Z,67.86
2018-12-17T08:52:23.416Z,67.96
2018-12-17T08:53:23.326Z,67.86
2018-12-17T08:54:23.268Z,67.68
2018-12-17T08:55:23.211Z,68.05
2018-12-17T08:56:23.148Z,67.86
2018-12-17T08:57:23.124Z,67.68
2018-12-17T08:58:23.031Z,67.86
2018-12-17T08:59:22.970Z,68.24
2018-12-17T09:00:22.917Z,68.52
2018-12-17T09:01:22.854Z,68.52
2018-12-17T09:02:22.822Z,68.24
2018-12-17T09:03:22.735Z,68.15
2018-12-17T09:04:22.710Z,68.33
2018-12-17T09:05:22.617Z,69.09
2018-12-17T09:06:22.560Z,69.00
2018-12-17T09:07:22.533Z,68.81
2018-12-17T09:08:22.439Z,69.38
2018-12-17T09:09:22.414Z,69.38
2018-12-17T09:10:22.320Z,69.38
2018-12-17T09:11:22.260Z,69.66
2018-12-17T09:12:22.201Z,69.95
2018-12-17T09:13:22.180Z,70.42
2018-12-17T09:14:22.118Z,70.51
2018-12-17T09:15:22.026Z,70.42
2018-12-17T09:16:21.967Z,70.32
2018-12-17T09:17:21.908Z,70.42
2018-12-17T09:18:21.883Z,70.42
2018-12-17T09:19:21.790Z,69.76
2018-12-17T09:20:21.762Z,69.76
2018-12-17T09:21:21.671Z,69.85
2018-12-17T09:22:21.642Z,69.95
2018-12-17T09:23:21.553Z,69.95
2018-12-17T09:24:21.495Z,70.04
2018-12-17T09:25:21.435Z,70.23
2018-12-17T09:26:21.409Z,69.95
2018-12-17T09:27:21.319Z,70.98
2018-12-17T09:28:21.264Z,71.08
2018-12-17T09:29:21.202Z,71.46
2018-12-17T09:30:21.145Z,71.36
2018-12-17T09:31:21.112Z,71.46
2018-12-17T09:32:21.058Z,71.74
2018-12-17T09:33:20.963Z,71.93
2018-12-17T09:34:20.903Z,72.41
2018-12-17T09:35:20.844Z,73.16
2018-12-17T09:36:20.828Z,72.69
2018-12-17T09:37:20.727Z,73.07
2018-12-17T09:38:20.667Z,73.26
2018-12-17T09:39:20.608Z,73.64
2018-12-17T09:40:20.555Z,74.05
2018-12-17T09:41:20.523Z,73.64
2018-12-17T09:42:20.431Z,73.86
2018-12-17T09:43:20.376Z,74.43
2018-12-17T09:44:20.314Z,74.15
2018-12-17T09:45:20.256Z,74.71
2018-12-17T09:46:20.235Z,75.05
2018-12-17T09:47:20.137Z,74.71
2018-12-17T09:48:20.078Z,74.81
2018-12-17T09:49:20.019Z,75.00
2018-12-17T09:50:19.993Z,74.90
2018-12-17T09:51:19.931Z,74.81
2018-12-17T09:52:19.876Z,75.47
2018-12-17T09:53:19.819Z,75.09
2018-12-17T09:54:19.725Z,75.09
2018-12-17T09:55:19.666Z,75.34
2018-12-17T09:56:19.607Z,76.10
2018-12-17T09:57:19.546Z,75.76
2018-12-17T09:58:19.521Z,76.42
2018-12-17T09:59:19.431Z,76.57
2018-12-17T10:00:25.369Z,76.48
2018-12-17T10:01:19.315Z,76.48
2018-12-17T10:02:19.254Z,76.00
2018-12-17T10:03:19.196Z,75.62
2018-12-17T10:04:19.134Z,75.15
2018-12-17T10:05:19.106Z,74.77
2018-12-17T10:06:19.018Z,75.05
2018-12-17T10:07:18.957Z,74.68
2018-12-17T10:08:18.899Z,74.58
2018-12-17T10:09:18.846Z,74.49
2018-12-17T10:10:18.820Z,73.92
2018-12-17T10:11:18.723Z,73.45
2018-12-17T10:12:18.665Z,72.78
2018-12-17T10:13:18.603Z,73.07
2018-12-17T10:14:18.580Z,72.22
2018-12-17T10:15:18.536Z,72.31
2018-12-17T10:16:18.428Z,72.22
2018-12-17T10:17:18.368Z,71.74
2018-12-17T10:18:18.309Z,72.03
2018-12-17T10:19:18.248Z,71.93
2018-12-17T10:20:18.226Z,71.46
2018-12-17T10:21:18.135Z,70.98
2018-12-17T10:22:18.074Z,70.89
2018-12-17T10:23:18.013Z,70.51
2018-12-17T10:24:17.960Z,70.32
2018-12-17T10:25:17.933Z,69.76
2018-12-17T10:26:17.839Z,69.66
2018-12-17T10:27:17.781Z,69.09
2018-12-17T10:28:17.721Z,69.19
2018-12-17T10:29:17.661Z,69.57
2018-12-17T10:30:17.638Z,69.38
2018-12-17T10:31:17.547Z,69.38
2018-12-17T10:32:17.486Z,69.38
2018-12-17T10:33:17.462Z,69.47
2018-12-17T10:34:17.366Z,69.38
2018-12-17T10:35:17.348Z,68.90
2018-12-17T10:36:17.246Z,69.19
2018-12-17T10:37:17.192Z,68.05
2018-12-17T10:38:17.135Z,68.33
2018-12-17T10:39:17.071Z,68.24
2018-12-17T10:40:17.048Z,68.52
2018-12-17T10:41:16.952Z,68.52
2018-12-17T10:42:16.896Z,68.62
2018-12-17T10:43:16.835Z,68.62
2018-12-17T10:44:16.806Z,68.52
2018-12-17T10:45:16.721Z,68.15
2018-12-17T10:46:16.658Z,68.33
2018-12-17T10:47:16.596Z,68.43
2018-12-17T10:48:16.540Z,68.15
2018-12-17T10:49:16.524Z,68.43
2018-12-17T10:50:16.419Z,68.43
2018-12-17T10:51:16.362Z,68.43
2018-12-17T10:52:16.308Z,67.86
2018-12-17T10:53:16.243Z,67.86
2018-12-17T10:54:16.221Z,67.77
2018-12-17T10:55:16.127Z,67.86
2018-12-17T10:56:16.070Z,67.86
2018-12-17T10:57:16.008Z,67.86
2018-12-17T10:58:15.988Z,67.86
2018-12-17T10:59:15.892Z,67.68
2018-12-17T11:00:15.832Z,67.96
2018-12-17T11:01:15.773Z,67.96
2018-12-17T11:02:15.713Z,67.77
2018-12-17T11:03:15.689Z,67.39
2018-12-17T11:04:15.594Z,67.77
2018-12-17T11:05:15.536Z,67.58
2018-12-17T11:06:15.478Z,67.49
2018-12-17T11:07:15.448Z,67.77
2018-12-17T11:08:15.360Z,67.86
2018-12-17T11:09:15.301Z,67.77
2018-12-17T11:10:15.275Z,67.68
2018-12-17T11:11:15.181Z,67.58
2018-12-17T11:12:15.125Z,67.39
2018-12-17T11:13:15.066Z,67.58
2018-12-17T11:14:15.006Z,67.58
2018-12-17T11:15:14.976Z,67.77
2018-12-17T11:16:14.980Z,67.77
2018-12-17T11:17:14.832Z,67.49
2018-12-17T11:18:14.794Z,66.82
2018-12-17T11:19:14.715Z,66.63
2018-12-17T11:20:14.653Z,66.63
2018-12-17T11:21:14.633Z,66.82
2018-12-17T11:22:14.534Z,67.01
2018-12-17T11:23:14.475Z,66.92
2018-12-17T11:24:14.417Z,67.01
2018-12-17T11:25:14.360Z,67.01
2018-12-17T11:26:14.341Z,66.73
2018-12-17T11:27:14.240Z,66.92
2018-12-17T11:28:14.179Z,66.73
2018-12-17T11:29:14.131Z,66.35
2018-12-17T11:30:14.062Z,66.53
2018-12-17T11:31:14.038Z,66.73
2018-12-17T11:32:13.942Z,66.63
2018-12-17T11:33:13.890Z,67.20
2018-12-17T11:34:13.836Z,67.01
2018-12-17T11:35:13.772Z,67.58
2018-12-17T11:36:13.743Z,67.77
2018-12-17T11:37:13.681Z,67.86
2018-12-17T11:38:13.590Z,67.86
2018-12-17T11:39:13.531Z,67.86
2018-12-17T11:40:13.476Z,67.86
2018-12-17T11:41:13.418Z,67.77
2018-12-17T11:42:13.399Z,68.52
2018-12-17T11:43:13.297Z,68.62
2018-12-17T11:44:13.269Z,69.57
2018-12-17T11:45:13.179Z,69.57
2018-12-17T11:46:13.124Z,70.04
2018-12-17T11:47:13.090Z,70.42
2018-12-17T11:48:13.002Z,70.89
2018-12-17T11:49:12.976Z,71.36
2018-12-17T11:50:12.888Z,71.93
2018-12-17T11:51:12.824Z,72.03
2018-12-17T11:52:12.807Z,72.60
2018-12-17T11:53:12.709Z,72.69
2018-12-17T11:54:12.649Z,73.16
2018-12-17T11:55:12.592Z,73.73
2018-12-17T11:56:12.539Z,74.15
2018-12-17T11:57:12.508Z,74.58
2018-12-17T11:58:12.417Z,74.81
2018-12-17T11:59:12.355Z,74.43
2018-12-17T12:00:12.298Z,74.90
2018-12-17T12:01:12.273Z,75.09
2018-12-17T12:02:12.179Z,75.28
2018-12-17T12:03:12.123Z,75.09
2018-12-17T12:04:13.376Z,75.38
2018-12-17T12:05:12.036Z,75.09
2018-12-17T12:06:14.350Z,74.33
2018-12-17T12:07:11.885Z,74.71
2018-12-17T12:08:11.827Z,74.81
2018-12-17T12:09:11.771Z,74.71
2018-12-17T12:10:11.741Z,74.71
2018-12-17T12:11:11.652Z,75.09
2018-12-17T12:12:11.593Z,75.28
2018-12-17T12:13:11.534Z,75.00
2018-12-17T12:14:11.478Z,74.52
2018-12-17T12:15:11.448Z,74.15
2018-12-17T12:16:11.357Z,74.05
2018-12-17T12:17:11.301Z,74.05
2018-12-17T12:18:11.241Z,73.77
2018-12-17T12:19:11.213Z,73.96
2018-12-17T12:20:11.125Z,74.05
2018-12-17T12:21:11.064Z,73.77
2018-12-17T12:22:11.008Z,73.58
2018-12-17T12:23:10.978Z,73.68
2018-12-17T12:24:10.890Z,73.39
2018-12-17T12:25:10.831Z,73.77
2018-12-17T12:26:10.775Z,73.58
2018-12-17T12:27:10.744Z,73.30
2018-12-17T12:28:10.688Z,73.30
2018-12-17T12:29:10.596Z,73.11
2018-12-17T12:30:10.538Z,73.11
2018-12-17T12:31:10.512Z,73.11
2018-12-17T12:32:10.419Z,73.58
2018-12-17T12:33:10.394Z,72.92
2018-12-17T12:34:10.338Z,73.58
2018-12-17T12:35:10.246Z,73.77
2018-12-17T12:36:10.184Z,74.33
2018-12-17T12:37:10.127Z,74.81
2018-12-17T12:38:10.074Z,74.81
2018-12-17T12:39:10.041Z,74.52
2018-12-17T12:40:09.950Z,74.90
2018-12-17T12:41:09.894Z,74.71
2018-12-17T12:42:09.835Z,74.62
2018-12-17T12:43:09.810Z,74.81
2018-12-17T12:44:09.754Z,74.81
2018-12-17T12:45:09.660Z,75.19
2018-12-17T12:46:09.602Z,74.43
2018-12-17T12:47:09.546Z,74.52
2018-12-17T12:48:09.485Z,74.43
2018-12-17T12:49:09.461Z,74.24
2018-12-17T12:50:09.367Z,74.15
2018-12-17T12:51:09.310Z,74.15
2018-12-17T12:52:09.268Z,74.81